Time;durP1;ratioP1;P1;durP2;ratioP2;P2;SDS_P1;SDS_P2;PMS_P1;PMS_P2;Temp;Humidity;BMP_temperature;BMP_pressure;BME280_temperature;BME280_humidity;BME280_pressure;Samples;Min_cycle;Max_cycle;Signal;HPM_P1;HPM_P2
2023/01/15 00:02:19;;;;;;;13.13;4.90;;;5.80;1.00;;;;;;10331627;28;20230;-81
2023/01/15 00:07:41;;;;;;;9.83;3.37;;;5.90;1.00;;;;;;10331741;28;20292;-81
2023/01/15 00:13:02;;;;;;;14.77;4.57;;;5.90;1.00;;;;;;10357747;28;20267;-84
2023/01/15 00:18:23;;;;;;;10.07;3.80;;;5.80;1.00;;;;;;10369636;28;20203;-81
2023/01/15 00:29:25;;;;;;;10.53;4.00;;;5.90;1.00;;;;;;10361592;28;20505;-81
2023/01/15 00:34:46;;;;;;;13.53;6.27;;;5.90;1.00;;;;;;10341365;28;20239;-84
2023/01/15 00:40:08;;;;;;;9.03;4.20;;;5.90;1.00;;;;;;10329003;28;20242;-81
2023/01/15 00:45:31;;;;;;;10.20;3.23;;;5.90;1.00;;;;;;10329267;28;20429;-80
2023/01/15 00:50:52;;;;;;;9.13;3.70;;;5.90;1.00;;;;;;10329085;28;20207;-81
2023/01/15 00:56:14;;;;;;;10.10;3.97;;;6.00;1.00;;;;;;10342494;28;20270;-80
2023/01/15 01:01:35;;;;;;;9.70;4.03;;;6.00;1.00;;;;;;10342552;28;20281;-81
2023/01/15 01:06:56;;;;;;;9.87;4.17;;;5.90;1.00;;;;;;10331586;28;20198;-81
2023/01/15 01:12:20;;;;;;;8.93;3.80;;;6.00;1.00;;;;;;10344101;28;20199;-81
2023/01/15 01:17:41;;;;;;;12.60;4.73;;;6.00;1.00;;;;;;10348893;28;20199;-81
2023/01/15 01:23:02;;;;;;;12.80;4.40;;;6.10;1.00;;;;;;10327841;28;20231;-83
2023/01/15 01:28:24;;;;;;;9.07;3.93;;;6.00;1.00;;;;;;10341074;28;20269;-82
2023/01/15 01:33:48;;;;;;;5.93;3.03;;;5.90;2.60;;;;;;10327530;28;20243;-81
2023/01/15 01:39:17;;;;;;;10.97;3.63;;;6.00;1.00;;;;;;10327235;28;20200;-81
2023/01/15 01:44:38;;;;;;;11.67;4.03;;;6.00;1.00;;;;;;10313682;28;20908;-82
2023/01/15 01:50:08;;;;;;;13.20;4.17;;;6.00;1.00;;;;;;10342883;28;20196;-81
2023/01/15 01:55:32;;;;;;;8.40;3.47;;;6.00;1.00;;;;;;10326607;28;20493;-86
2023/01/15 02:00:53;;;;;;;11.20;3.40;;;6.00;1.00;;;;;;10312681;28;20226;-82
2023/01/15 02:06:15;;;;;;;6.13;3.20;;;6.10;1.00;;;;;;10340059;28;20209;-83
2023/01/15 02:11:37;;;;;;;9.73;3.27;;;6.10;1.00;;;;;;10312783;28;20205;-81
2023/01/15 02:17:13;;;;;;;9.57;2.73;;;6.20;1.00;;;;;;10342291;28;20241;-85
2023/01/15 02:22:52;;;;;;;7.47;2.80;;;6.20;1.00;;;;;;10325881;28;20238;-87
2023/01/15 02:28:21;;;;;;;6.60;3.10;;;6.20;1.00;;;;;;10328583;28;20190;-82
2023/01/15 02:33:50;;;;;;;7.33;3.00;;;6.10;1.00;;;;;;10341521;28;20319;-82
2023/01/15 02:39:14;;;;;;;9.00;3.53;;;6.20;1.00;;;;;;10311654;28;20279;-83
2023/01/15 02:44:45;;;;;;;10.27;3.00;;;6.20;4.60;;;;;;10325364;28;20212;-88
2023/01/15 02:50:15;;;;;;;8.67;3.13;;;6.20;1.50;;;;;;10325876;28;20404;-81
2023/01/15 02:55:48;;;;;;;8.43;3.23;;;6.30;6.40;;;;;;10331088;28;20191;-81
2023/01/15 03:01:18;;;;;;;7.70;2.90;;;6.30;48.00;;;;;;10324527;28;20234;-83
2023/01/15 03:06:46;;;;;;;4.03;2.67;;;6.10;99.90;;;;;;10336919;28;20206;-81
2023/01/15 03:12:27;;;;;;;5.47;2.23;;;6.10;99.90;;;;;;10343102;28;20227;-87
2023/01/15 03:17:54;;;;;;;4.80;2.80;;;6.10;99.90;;;;;;10332888;28;20211;-83
2023/01/15 03:23:17;;;;;;;5.77;2.80;;;6.10;99.90;;;;;;10348583;28;20250;-88
2023/01/15 03:28:40;;;;;;;3.53;2.33;;;6.10;99.90;;;;;;10312346;28;20197;-81
2023/01/15 03:34:02;;;;;;;4.53;2.33;;;6.00;99.90;;;;;;10315568;28;20247;-81
2023/01/15 03:39:24;;;;;;;2.60;1.63;;;5.90;99.90;;;;;;10331676;28;20458;-81
2023/01/15 03:45:07;;;;;;;3.20;2.00;;;6.00;99.90;;;;;;10332233;28;20211;-87
2023/01/15 03:51:14;;;;;;;3.17;2.10;;;6.00;99.90;;;;;;10334482;28;20202;-81
2023/01/15 03:56:54;;;;;;;6.60;2.87;;;5.90;99.90;;;;;;10347765;28;20203;-81
2023/01/15 04:02:19;;;;;;;3.40;2.37;;;5.90;99.90;;;;;;10331068;28;20228;-87
2023/01/15 04:07:42;;;;;;;3.17;1.93;;;6.00;99.90;;;;;;10347069;28;20203;-88
2023/01/15 04:13:05;;;;;;;2.33;2.03;;;6.00;99.90;;;;;;10343658;28;20211;-88
2023/01/15 04:18:26;;;;;;;4.30;1.77;;;6.10;99.90;;;;;;10333597;28;20375;-86
2023/01/15 04:23:48;;;;;;;4.57;2.07;;;6.10;99.90;;;;;;10330272;28;20231;-86
2023/01/15 04:29:09;;;;;;;5.50;1.80;;;6.10;99.90;;;;;;10330063;28;20198;-88
2023/01/15 04:34:30;;;;;;;2.30;1.43;;;6.10;99.90;;;;;;10329742;28;20263;-83
2023/01/15 04:39:52;;;;;;;4.47;1.83;;;6.10;99.90;;;;;;10329211;28;20295;-86
2023/01/15 04:45:13;;;;;;;4.53;1.63;;;6.20;99.90;;;;;;10329671;28;20210;-81
2023/01/15 04:50:34;;;;;;;4.73;1.87;;;6.20;99.90;;;;;;10328868;28;20216;-83
2023/01/15 04:56:00;;;;;;;3.20;2.20;;;6.20;99.90;;;;;;10342769;28;20229;-86
2023/01/15 05:01:22;;;;;;;2.73;1.77;;;6.20;99.90;;;;;;10328710;28;20527;-88
2023/01/15 05:06:44;;;;;;;4.77;1.80;;;6.20;99.90;;;;;;10328787;28;20196;-81
2023/01/15 05:12:05;;;;;;;3.30;1.97;;;6.20;99.90;;;;;;10315854;28;20295;-81
2023/01/15 05:17:27;;;;;;;4.20;1.63;;;6.40;99.90;;;;;;10329883;28;20186;-85
2023/01/15 05:22:48;;;;;;;3.67;2.30;;;6.40;99.90;;;;;;10362468;28;20250;-81
2023/01/15 05:28:09;;;;;;;8.17;3.37;;;6.40;99.90;;;;;;10331154;28;20197;-83
2023/01/15 05:33:30;;;;;;;3.73;2.13;;;6.30;99.90;;;;;;10327204;28;20426;-82
2023/01/15 05:38:53;;;;;;;3.53;1.87;;;6.30;99.90;;;;;;10356994;28;20207;-84
2023/01/15 05:44:18;;;;;;;4.93;2.20;;;6.30;99.90;;;;;;10313758;28;20545;-87
2023/01/15 05:49:39;;;;;;;3.17;2.47;;;6.30;99.90;;;;;;10313274;28;20439;-86
2023/01/15 05:55:01;;;;;;;2.30;1.90;;;6.30;99.90;;;;;;10329968;28;20288;-82
2023/01/15 06:00:22;;;;;;;2.40;1.67;;;6.20;99.90;;;;;;10340404;28;20226;-82
2023/01/15 06:05:53;;;;;;;2.83;1.60;;;6.20;99.90;;;;;;10329651;28;20224;-83
2023/01/15 06:11:15;;;;;;;2.30;1.93;;;6.20;99.90;;;;;;10325355;28;20205;-81
2023/01/15 06:16:37;;;;;;;1.70;1.53;;;6.30;99.90;;;;;;10362248;28;20227;-83
2023/01/15 06:22:08;;;;;;;2.80;1.60;;;6.40;99.90;;;;;;10354548;28;20238;-81
2023/01/15 06:27:30;;;;;;;1.00;0.83;;;6.40;99.90;;;;;;10312628;28;20497;-85
2023/01/15 06:32:52;;;;;;;2.53;1.70;;;6.40;99.90;;;;;;10346633;28;20403;-88
2023/01/15 06:38:13;;;;;;;2.90;1.70;;;6.40;99.90;;;;;;10369250;28;20202;-85
2023/01/15 06:49:14;;;;;;;4.40;1.90;;;6.40;99.90;;;;;;10382140;28;20384;-88
2023/01/15 06:54:36;;;;;;;2.63;1.80;;;6.50;99.90;;;;;;10382182;28;20213;-83
2023/01/15 06:59:57;;;;;;;5.03;1.90;;;6.50;99.90;;;;;;10351896;28;20206;-83
2023/01/15 07:05:19;;;;;;;3.10;1.77;;;6.50;99.90;;;;;;10379223;28;20284;-86
2023/01/15 07:10:40;;;;;;;4.47;3.33;;;6.60;99.90;;;;;;10365454;28;20208;-82
2023/01/15 07:16:03;;;;;;;4.30;2.60;;;6.50;99.90;;;;;;10351749;28;20253;-88
2023/01/15 07:21:25;;;;;;;3.90;2.20;;;6.50;99.90;;;;;;10365212;28;20301;-81
2023/01/15 07:26:46;;;;;;;7.47;4.07;;;6.60;99.90;;;;;;10378441;28;20206;-81
2023/01/15 07:32:08;;;;;;;6.57;3.83;;;6.60;99.90;;;;;;10351449;28;20487;-85
2023/01/15 07:37:29;;;;;;;2.20;1.03;;;6.60;99.90;;;;;;10378750;28;20257;-82
2023/01/15 07:54:10;;;;;;;4.47;2.30;;;5.90;99.90;;;;;;10371899;28;20202;-86
2023/01/15 07:59:31;;;;;;;8.20;4.00;;;5.80;99.90;;;;;;10374393;28;20214;-86
2023/01/15 08:04:54;;;;;;;6.60;3.60;;;5.70;99.90;;;;;;10388325;28;20198;-82
2023/01/15 08:10:15;;;;;;;8.30;5.47;;;5.70;99.90;;;;;;10373977;28;20219;-83
2023/01/15 08:15:42;;;;;;;4.37;2.03;;;5.60;99.90;;;;;;10401895;28;20207;-82
2023/01/15 08:21:03;;;;;;;5.87;3.30;;;5.50;99.90;;;;;;10370694;28;20252;-85
2023/01/15 08:26:26;;;;;;;5.27;3.13;;;5.40;99.90;;;;;;10342683;28;20290;-85
2023/01/15 08:31:47;;;;;;;2.77;2.37;;;5.40;99.90;;;;;;10386344;28;20246;-84
2023/01/15 08:37:09;;;;;;;3.07;1.60;;;5.50;99.90;;;;;;10345649;28;20393;-85
2023/01/15 08:42:30;;;;;;;1.97;1.30;;;5.50;99.90;;;;;;10329443;28;20297;-82
2023/01/15 08:47:55;;;;;;;4.13;1.80;;;5.50;99.90;;;;;;10343094;28;20243;-83
2023/01/15 08:53:18;;;;;;;4.13;2.30;;;5.50;99.90;;;;;;10346372;28;20535;-85
2023/01/15 08:58:39;;;;;;;2.90;1.80;;;5.50;99.90;;;;;;10343621;28;20205;-83
2023/01/15 09:04:00;;;;;;;7.00;4.33;;;5.60;99.90;;;;;;10346068;28;20254;-81
2023/01/15 09:09:22;;;;;;;1.73;1.47;;;5.60;99.90;;;;;;10329805;28;20208;-81
2023/01/15 09:14:43;;;;;;;1.77;1.10;;;5.50;99.90;;;;;;10350905;28;20214;-81
2023/01/15 09:20:09;;;;;;;1.90;1.23;;;5.50;99.90;;;;;;10383365;28;20257;-89
2023/01/15 09:25:30;;;;;;;2.03;1.20;;;5.50;99.90;;;;;;10365425;28;20270;-81
2023/01/15 09:30:52;;;;;;;4.83;1.60;;;5.50;99.90;;;;;;10382016;28;20244;-87
2023/01/15 09:36:26;;;;;;;3.80;2.33;;;5.50;99.90;;;;;;10330553;28;20246;-82
2023/01/15 09:42:08;;;;;;;11.93;5.63;;;5.50;99.90;;;;;;10365781;28;20226;-86
2023/01/15 09:47:38;;;;;;;9.27;4.10;;;5.60;99.90;;;;;;10371901;28;20368;-81
2023/01/15 09:53:35;;;;;;;6.50;2.50;;;5.60;99.90;;;;;;10367771;28;20202;-86
2023/01/15 09:59:00;;;;;;;3.20;1.60;;;5.50;99.90;;;;;;10287887;28;20273;-82
2023/01/15 10:04:35;;;;;;;4.07;1.60;;;5.50;99.90;;;;;;10300269;28;20267;-88
2023/01/15 10:10:09;;;;;;;5.60;1.40;;;5.60;99.90;;;;;;10270521;28;20227;-88
2023/01/15 10:15:43;;;;;;;6.23;1.63;;;5.40;99.90;;;;;;10300283;28;20204;-80
2023/01/15 10:21:28;;;;;;;5.17;2.47;;;5.40;99.90;;;;;;10272652;28;20231;-84
2023/01/15 10:26:58;;;;;;;6.30;2.23;;;5.40;99.90;;;;;;10338591;28;20244;-84
2023/01/15 10:32:29;;;;;;;3.77;2.10;;;5.40;99.90;;;;;;10398189;28;20225;-85
2023/01/15 10:38:07;;;;;;;6.13;2.80;;;5.50;99.90;;;;;;10334340;28;20226;-88
2023/01/15 10:44:01;;;;;;;6.67;3.33;;;5.50;99.90;;;;;;10380762;28;20228;-82
2023/01/15 10:49:27;;;;;;;2.97;1.90;;;5.50;99.90;;;;;;10383495;28;20415;-86
2023/01/15 10:55:02;;;;;;;2.97;1.90;;;5.40;99.90;;;;;;10380708;28;20206;-83
2023/01/15 11:00:25;;;;;;;4.00;1.90;;;5.40;99.90;;;;;;10366709;28;20226;-81
2023/01/15 11:05:46;;;;;;;2.57;1.67;;;5.30;99.90;;;;;;10364708;28;20214;-82
2023/01/15 11:22:55;;;;;;;17.60;9.90;;;5.30;99.90;;;;;;10373780;28;20243;-81
2023/01/15 11:28:17;;;;;;;18.63;8.63;;;5.30;99.90;;;;;;10422397;28;20195;-80
2023/01/15 11:34:03;;;;;;;20.13;11.50;;;5.20;99.90;;;;;;10420036;28;20307;-81
2023/01/15 11:39:29;;;;;;;23.93;14.53;;;5.10;99.90;;;;;;10378419;28;20262;-88
2023/01/15 11:50:51;;;;;;;6.40;3.93;;;5.20;99.90;;;;;;10406274;28;20265;-84
2023/01/15 11:56:20;;;;;;;8.73;4.70;;;5.20;99.90;;;;;;10375307;28;20209;-82
2023/01/15 12:01:58;;;;;;;6.07;4.33;;;5.20;99.90;;;;;;10358380;28;20270;-82
2023/01/15 12:07:23;;;;;;;5.23;3.43;;;5.10;99.90;;;;;;10373950;28;20265;-82
2023/01/15 12:13:09;;;;;;;8.03;5.33;;;5.10;99.90;;;;;;10374286;28;20201;-81
2023/01/15 12:18:52;;;;;;;12.03;6.33;;;5.10;99.90;;;;;;10357718;28;20501;-81
2023/01/15 12:24:37;;;;;;;8.83;3.97;;;5.10;99.90;;;;;;10387197;28;20221;-81
2023/01/15 12:30:08;;;;;;;10.77;5.10;;;5.10;99.90;;;;;;10343853;28;20223;-81
2023/01/15 12:35:39;;;;;;;12.47;6.23;;;5.20;99.90;;;;;;10327578;28;20200;-84
2023/01/15 12:41:13;;;;;;;23.27;10.80;;;5.10;99.90;;;;;;10347093;28;20385;-80
2023/01/15 12:46:39;;;;;;;18.00;9.37;;;5.10;99.90;;;;;;10331595;28;20206;-81
2023/01/15 12:52:10;;;;;;;7.03;4.87;;;5.20;99.90;;;;;;10330020;28;20281;-81
2023/01/15 12:57:35;;;;;;;6.80;3.87;;;5.10;99.90;;;;;;10334405;28;20416;-84
2023/01/15 13:03:15;;;;;;;12.00;5.33;;;5.10;99.90;;;;;;10343770;28;20248;-85
2023/01/15 13:09:08;;;;;;;9.07;4.23;;;5.10;99.90;;;;;;10330998;28;20223;-85
2023/01/15 13:14:30;;;;;;;15.33;6.90;;;5.00;99.90;;;;;;10345142;28;20200;-87
2023/01/15 13:20:19;;;;;;;11.50;6.13;;;5.10;99.90;;;;;;10334908;28;20215;-82
2023/01/15 13:25:46;;;;;;;31.27;18.23;;;5.10;99.90;;;;;;10330645;28;20286;-83
2023/01/15 13:31:31;;;;;;;19.80;11.83;;;5.00;99.90;;;;;;10352813;28;20259;-82
2023/01/15 13:36:57;;;;;;;20.03;9.80;;;4.90;99.90;;;;;;10404682;28;20220;-82
2023/01/15 13:42:31;;;;;;;10.80;5.70;;;4.90;99.90;;;;;;10372016;28;20537;-81
2023/01/15 13:48:04;;;;;;;20.13;8.80;;;4.90;99.90;;;;;;10357178;28;20205;-82
2023/01/15 13:53:33;;;;;;;8.43;4.83;;;4.90;99.90;;;;;;10355906;28;20575;-81
2023/01/15 13:59:00;;;;;;;12.20;6.80;;;4.90;99.90;;;;;;10368515;28;20497;-86
2023/01/15 14:04:35;;;;;;;8.07;4.43;;;4.90;99.90;;;;;;10369749;28;20226;-81
2023/01/15 14:10:26;;;;;;;9.50;5.27;;;4.80;99.90;;;;;;10370158;28;20511;-81
2023/01/15 14:16:27;;;;;;;8.37;4.23;;;4.80;99.90;;;;;;10373539;28;20213;-85
2023/01/15 14:22:08;;;;;;;24.00;9.00;;;4.80;99.90;;;;;;10378456;28;20246;-86
2023/01/15 14:27:57;;;;;;;18.70;7.97;;;4.90;99.90;;;;;;10366667;28;20211;-87
2023/01/15 14:33:47;;;;;;;11.07;6.37;;;4.90;99.90;;;;;;10354388;28;20250;-85
2023/01/15 14:39:42;;;;;;;14.73;5.73;;;4.80;99.90;;;;;;10369162;28;20194;-85
2023/01/15 14:45:10;;;;;;;10.90;5.23;;;4.80;99.90;;;;;;10399825;28;20249;-81
2023/01/15 14:50:40;;;;;;;10.80;4.80;;;4.70;99.90;;;;;;10353176;28;20205;-81
2023/01/15 14:56:27;;;;;;;20.57;10.40;;;4.80;99.90;;;;;;10367566;28;20274;-81
2023/01/15 15:02:00;;;;;;;15.20;7.43;;;4.70;99.90;;;;;;10396072;28;20233;-88
2023/01/15 15:07:35;;;;;;;28.27;16.90;;;4.70;99.90;;;;;;10370322;28;20203;-89
2023/01/15 15:13:06;;;;;;;14.90;9.07;;;4.70;99.90;;;;;;10404795;28;20252;-81
2023/01/15 15:18:57;;;;;;;18.40;8.80;;;4.60;99.90;;;;;;10396544;28;20272;-81
2023/01/15 15:24:28;;;;;;;15.47;7.80;;;4.70;99.90;;;;;;10276701;28;20242;-80
2023/01/15 15:29:50;;;;;;;23.13;13.50;;;4.70;99.90;;;;;;10278140;28;20208;-86
2023/01/15 15:35:27;;;;;;;18.63;10.30;;;4.70;99.90;;;;;;10281197;28;20233;-81
2023/01/15 15:40:57;;;;;;;15.60;7.47;;;4.80;99.90;;;;;;10272773;28;20211;-86
2023/01/15 15:52:24;;;;;;;13.70;5.47;;;4.70;99.90;;;;;;10286475;28;20274;-87
2023/01/15 15:57:57;;;;;;;15.03;7.07;;;4.80;99.90;;;;;;10276995;28;20210;-81
2023/01/15 16:03:22;;;;;;;15.33;6.90;;;4.70;99.90;;;;;;10298490;28;20476;-81
2023/01/15 16:08:51;;;;;;;15.27;8.13;;;4.70;99.90;;;;;;10303358;28;20208;-81
2023/01/15 16:14:16;;;;;;;23.23;7.07;;;4.70;99.90;;;;;;10330407;28;20391;-87
2023/01/15 16:19:37;;;;;;;18.53;8.37;;;4.70;99.90;;;;;;10332130;28;20282;-80
2023/01/15 16:24:59;;;;;;;30.23;11.20;;;4.60;99.90;;;;;;10331210;28;20234;-80
2023/01/15 16:30:21;;;;;;;14.53;7.10;;;4.60;99.90;;;;;;10317698;28;20218;-88
2023/01/15 16:35:42;;;;;;;9.30;3.67;;;4.70;99.90;;;;;;10347459;28;20371;-81
2023/01/15 16:41:03;;;;;;;16.90;7.07;;;4.70;99.90;;;;;;10330623;28;20199;-81
2023/01/15 16:46:31;;;;;;;7.80;4.57;;;4.80;99.90;;;;;;10317204;28;20206;-82
2023/01/15 16:51:56;;;;;;;10.83;4.57;;;4.80;99.90;;;;;;10346515;28;20261;-81
2023/01/15 16:57:26;;;;;;;26.17;11.50;;;4.80;99.90;;;;;;10329591;28;20202;-82
2023/01/15 17:02:47;;;;;;;46.37;21.83;;;4.70;99.90;;;;;;10346085;28;20258;-83
2023/01/15 17:08:36;;;;;;;25.87;11.40;;;4.70;99.90;;;;;;10346864;28;20196;-82
2023/01/15 17:14:23;;;;;;;20.53;8.10;;;4.70;99.90;;;;;;10328997;28;20210;-82
2023/01/15 17:19:44;;;;;;;24.07;8.77;;;4.70;99.90;;;;;;10346985;28;20274;-84
2023/01/15 17:25:29;;;;;;;17.80;7.43;;;4.70;99.90;;;;;;10339087;28;20241;-86
2023/01/15 17:30:56;;;;;;;12.17;6.43;;;4.70;99.90;;;;;;10346483;28;20205;-83
2023/01/15 17:36:18;;;;;;;17.50;9.37;;;4.60;99.90;;;;;;10331813;28;20205;-80
2023/01/15 17:41:40;;;;;;;18.00;7.77;;;4.60;99.90;;;;;;10366918;28;20221;-82
2023/01/15 17:47:01;;;;;;;22.53;10.17;;;4.60;99.90;;;;;;10387725;28;20201;-81
2023/01/15 17:52:22;;;;;;;40.50;16.10;;;4.70;99.90;;;;;;10387421;28;20202;-83
2023/01/15 18:09:06;;;;;;;9.60;5.07;;;4.60;99.90;;;;;;10383411;28;20213;-87
2023/01/15 18:14:28;;;;;;;9.90;5.00;;;4.50;99.90;;;;;;10370308;28;20202;-81
2023/01/15 18:19:50;;;;;;;6.57;3.20;;;4.60;99.90;;;;;;10367693;28;20206;-81
2023/01/15 18:25:13;;;;;;;8.03;4.30;;;4.50;99.90;;;;;;10370692;28;20230;-86
2023/01/15 18:30:34;;;;;;;8.97;4.17;;;4.50;99.90;;;;;;10360428;28;20192;-79
2023/01/15 18:36:13;;;;;;;11.30;5.10;;;4.50;99.90;;;;;;10372744;28;20236;-81
2023/01/15 18:46:59;;;;;;;12.97;6.50;;;4.30;99.90;;;;;;10366524;28;20261;-82
2023/01/15 18:58:00;;;;;;;11.00;5.23;;;4.40;99.90;;;;;;10379769;28;20202;-80
2023/01/15 19:03:22;;;;;;;11.80;5.07;;;4.40;99.90;;;;;;10364978;28;20312;-81
2023/01/15 19:08:43;;;;;;;12.23;5.80;;;4.50;99.90;;;;;;10365702;28;20202;-84
2023/01/15 19:19:47;;;;;;;9.27;3.80;;;4.40;99.90;;;;;;10398103;28;20413;-83
2023/01/15 19:25:09;;;;;;;13.93;5.40;;;4.40;99.90;;;;;;10364917;28;20474;-86
2023/01/15 19:30:32;;;;;;;17.23;6.80;;;4.30;99.90;;;;;;10368308;28;20213;-81
2023/01/15 19:35:54;;;;;;;15.60;6.37;;;4.20;99.90;;;;;;10379089;28;20199;-81
2023/01/15 19:52:36;;;;;;;6.33;3.07;;;4.20;99.90;;;;;;10372726;28;20222;-84
2023/01/15 19:58:00;;;;;;;7.33;3.20;;;4.10;99.90;;;;;;10393774;28;20190;-81
2023/01/15 20:03:21;;;;;;;6.70;3.27;;;4.00;99.90;;;;;;10368503;28;20221;-81
2023/01/15 20:08:43;;;;;;;7.37;3.97;;;4.10;99.90;;;;;;10385064;28;20193;-81
2023/01/15 20:14:04;;;;;;;6.50;2.77;;;4.00;99.90;;;;;;10359382;28;20209;-82
2023/01/15 20:19:26;;;;;;;7.97;3.67;;;4.00;99.90;;;;;;10372516;28;20487;-81
2023/01/15 20:24:47;;;;;;;6.57;3.13;;;4.00;99.90;;;;;;10372641;28;20224;-81
2023/01/15 20:30:15;;;;;;;8.50;3.90;;;4.00;99.90;;;;;;10373750;28;20189;-83
2023/01/15 20:35:36;;;;;;;4.70;2.63;;;4.00;99.90;;;;;;10375428;28;20429;-81
2023/01/15 20:44:51;;;;;;;7.10;3.30;;;4.10;99.90;;;;;;10390656;28;20409;-84
2023/01/15 20:46:41;;;;;;;7.43;3.30;;;4.10;99.90;;;;;;10383939;28;20218;-86
2023/01/15 20:52:02;;;;;;;9.07;4.00;;;4.10;99.90;;;;;;10369699;28;20197;-80
2023/01/15 20:57:24;;;;;;;12.93;3.97;;;4.10;24.50;;;;;;10369561;28;20197;-81
2023/01/15 21:02:46;;;;;;;9.53;3.17;;;4.10;1.00;;;;;;10385797;28;20608;-81
2023/01/15 21:08:06;;;;;;;8.90;3.10;;;4.00;1.00;;;;;;10372405;28;20200;-83
2023/01/15 21:13:29;;;;;;;7.80;3.17;;;4.20;1.00;;;;;;10386520;28;20244;-82
2023/01/15 21:18:50;;;;;;;5.03;2.57;;;4.10;1.00;;;;;;10384851;28;20216;-82
2023/01/15 21:24:12;;;;;;;5.90;2.40;;;4.10;1.00;;;;;;10375731;28;20225;-86
2023/01/15 21:29:33;;;;;;;5.53;2.50;;;4.10;1.00;;;;;;10328532;28;20198;-87
2023/01/15 21:34:54;;;;;;;7.77;3.00;;;4.10;1.00;;;;;;10344865;28;20256;-81
2023/01/15 21:40:16;;;;;;;9.83;4.03;;;4.10;1.00;;;;;;10368394;28;20357;-81
2023/01/15 21:45:37;;;;;;;8.47;2.90;;;4.10;1.00;;;;;;10367985;28;20291;-81
2023/01/15 21:51:03;;;;;;;7.07;3.30;;;4.10;99.90;;;;;;10367763;28;20196;-84
2023/01/15 21:56:24;;;;;;;11.70;2.83;;;4.20;99.90;;;;;;10398642;28;20420;-85
2023/01/15 22:01:45;;;;;;;6.87;3.33;;;4.10;99.90;;;;;;10353628;28;20223;-83
2023/01/15 22:07:06;;;;;;;7.00;3.07;;;4.00;99.90;;;;;;10369462;28;20189;-82
2023/01/15 22:12:27;;;;;;;9.33;3.60;;;3.90;99.90;;;;;;10366903;28;20272;-83
2023/01/15 22:17:53;;;;;;;7.03;3.27;;;3.90;99.90;;;;;;10366583;28;20219;-82
2023/01/15 22:23:14;;;;;;;15.50;4.37;;;3.90;99.90;;;;;;10366259;28;20237;-83
2023/01/15 22:28:35;;;;;;;9.07;2.60;;;3.80;99.90;;;;;;10369348;28;20196;-82
2023/01/15 22:33:58;;;;;;;9.50;3.63;;;3.80;99.90;;;;;;10352075;28;20551;-83
2023/01/15 22:39:20;;;;;;;7.80;3.20;;;3.80;99.90;;;;;;10379648;28;20192;-81
2023/01/15 22:44:44;;;;;;;4.27;1.87;;;3.80;99.90;;;;;;10365605;28;20258;-83
2023/01/15 22:50:06;;;;;;;7.23;2.23;;;3.90;99.90;;;;;;10382391;28;20195;-83
2023/01/15 22:55:27;;;;;;;6.30;2.50;;;3.90;99.90;;;;;;10369092;28;20350;-84
2023/01/15 23:00:55;;;;;;;6.97;2.73;;;3.80;99.90;;;;;;10351712;28;20204;-83
2023/01/15 23:06:21;;;;;;;10.27;3.00;;;3.80;99.90;;;;;;10365326;28;20235;-85
2023/01/15 23:11:43;;;;;;;6.57;2.57;;;3.80;99.90;;;;;;10368459;28;20233;-84
2023/01/15 23:17:04;;;;;;;7.13;2.37;;;3.80;99.90;;;;;;10368083;28;20582;-84
2023/01/15 23:22:25;;;;;;;6.50;3.00;;;3.80;99.90;;;;;;10373583;28;20217;-84
2023/01/15 23:27:46;;;;;;;7.37;2.90;;;3.80;99.90;;;;;;10389747;28;20200;-87
2023/01/15 23:33:08;;;;;;;5.87;2.80;;;3.80;99.90;;;;;;10386523;28;20236;-81
2023/01/15 23:38:29;;;;;;;7.70;2.03;;;3.90;99.90;;;;;;10372795;28;20201;-82
2023/01/15 23:49:32;;;;;;;3.80;1.47;;;3.90;99.90;;;;;;10279231;29;20280;-81
2023/01/15 23:54:53;;;;;;;3.23;1.20;;;3.80;99.90;;;;;;10262879;29;20218;-81
